Terminal Aerodrome Forecast
Issued by NWS

Home | Current Version | Previous Version | Text Only | Print | Product List | Glossary Off
Versions: 1 2 3 4 5 6 7 8 9 10 11 12 13 14 15 16 17 18

556
FTUS43 KPAH 301720
TAFCGI
TAF
KCGI 301720Z 3018/0118 31007KT P6SM VCSH SCT015 OVC030
      TEMPO 3018/3020 4SM -SHRA BKN015
     FM302300 30004KT P6SM OVC015
     FM011500 30005KT P6SM BKN020=

USA.gov is the U.S. government's official web portal to all federal, state and local government web resources and services.